sensor_id;sensor_type;location;lat;lon;timestamp;temperature;humidity
78611;SHT30;67932;50.474;4.436;2023-08-20T00:01:57;19.45;83.04
78611;SHT30;67932;50.474;4.436;2023-08-20T00:04:27;19.44;83.01
78611;SHT30;67932;50.474;4.436;2023-08-20T00:06:54;19.47;83.02
78611;SHT30;67932;50.474;4.436;2023-08-20T00:09:20;19.44;83.11
78611;SHT30;67932;50.474;4.436;2023-08-20T00:11:47;19.38;83.45
78611;SHT30;67932;50.474;4.436;2023-08-20T00:14:16;19.44;83.21
78611;SHT30;67932;50.474;4.436;2023-08-20T00:16:43;19.48;83.04
78611;SHT30;67932;50.474;4.436;2023-08-20T00:19:11;19.42;83.27
78611;SHT30;67932;50.474;4.436;2023-08-20T00:21:41;19.38;83.18
78611;SHT30;67932;50.474;4.436;2023-08-20T00:24:08;19.36;83.27
78611;SHT30;67932;50.474;4.436;2023-08-20T00:26:35;19.32;83.36
78611;SHT30;67932;50.474;4.436;2023-08-20T00:29:01;19.31;83.38
78611;SHT30;67932;50.474;4.436;2023-08-20T00:31:28;19.31;83.29
78611;SHT30;67932;50.474;4.436;2023-08-20T00:33:54;19.29;84.15
78611;SHT30;67932;50.474;4.436;2023-08-20T00:36:21;19.27;83.92
78611;SHT30;67932;50.474;4.436;2023-08-20T00:38:47;19.21;84.19
78611;SHT30;67932;50.474;4.436;2023-08-20T00:41:13;19.17;84.54
78611;SHT30;67932;50.474;4.436;2023-08-20T00:43:39;19.10;84.69
78611;SHT30;67932;50.474;4.436;2023-08-20T00:46:06;19.07;84.85
78611;SHT30;67932;50.474;4.436;2023-08-20T00:48:32;19.14;84.56
78611;SHT30;67932;50.474;4.436;2023-08-20T00:50:58;19.12;84.66
78611;SHT30;67932;50.474;4.436;2023-08-20T00:53:25;19.21;84.57
78611;SHT30;67932;50.474;4.436;2023-08-20T00:55:51;19.22;84.44
78611;SHT30;67932;50.474;4.436;2023-08-20T00:58:17;19.19;84.41
78611;SHT30;67932;50.474;4.436;2023-08-20T01:00:44;19.17;84.59
78611;SHT30;67932;50.474;4.436;2023-08-20T01:03:10;19.12;84.44
78611;SHT30;67932;50.474;4.436;2023-08-20T01:05:43;19.10;84.46
78611;SHT30;67932;50.474;4.436;2023-08-20T01:08:36;19.03;84.63
78611;SHT30;67932;50.474;4.436;2023-08-20T01:11:07;19.03;85.05
78611;SHT30;67932;50.474;4.436;2023-08-20T01:13:36;19.04;85.07
78611;SHT30;67932;50.474;4.436;2023-08-20T01:16:02;19.08;85.14
78611;SHT30;67932;50.474;4.436;2023-08-20T01:18:28;19.07;84.76
78611;SHT30;67932;50.474;4.436;2023-08-20T01:21:12;19.08;84.54
78611;SHT30;67932;50.474;4.436;2023-08-20T01:24:01;18.98;85.05
78611;SHT30;67932;50.474;4.436;2023-08-20T01:28:58;19.03;84.64
78611;SHT30;67932;50.474;4.436;2023-08-20T01:31:25;18.98;84.72
78611;SHT30;67932;50.474;4.436;2023-08-20T01:33:52;18.97;84.80
78611;SHT30;67932;50.474;4.436;2023-08-20T01:36:18;18.98;84.68
78611;SHT30;67932;50.474;4.436;2023-08-20T01:38:45;18.98;84.61
78611;SHT30;67932;50.474;4.436;2023-08-20T01:41:11;18.95;84.53
78611;SHT30;67932;50.474;4.436;2023-08-20T01:43:37;19.00;85.06
78611;SHT30;67932;50.474;4.436;2023-08-20T01:46:04;18.97;85.21
78611;SHT30;67932;50.474;4.436;2023-08-20T01:48:30;18.93;85.05
78611;SHT30;67932;50.474;4.436;2023-08-20T01:50:56;18.81;85.92
78611;SHT30;67932;50.474;4.436;2023-08-20T01:53:23;18.74;86.06
78611;SHT30;67932;50.474;4.436;2023-08-20T01:55:49;18.67;86.56
78611;SHT30;67932;50.474;4.436;2023-08-20T01:58:15;18.64;86.71
78611;SHT30;67932;50.474;4.436;2023-08-20T02:00:41;18.64;86.59
78611;SHT30;67932;50.474;4.436;2023-08-20T02:03:08;18.63;86.92
78611;SHT30;67932;50.474;4.436;2023-08-20T02:05:34;18.68;86.89
78611;SHT30;67932;50.474;4.436;2023-08-20T02:08:00;18.80;86.67
78611;SHT30;67932;50.474;4.436;2023-08-20T02:10:26;18.84;86.45
78611;SHT30;67932;50.474;4.436;2023-08-20T02:12:52;19.00;86.22
78611;SHT30;67932;50.474;4.436;2023-08-20T02:15:19;19.12;84.93
78611;SHT30;67932;50.474;4.436;2023-08-20T02:17:45;19.19;84.19
78611;SHT30;67932;50.474;4.436;2023-08-20T02:20:12;19.24;83.87
78611;SHT30;67932;50.474;4.436;2023-08-20T02:22:38;19.35;83.50
78611;SHT30;67932;50.474;4.436;2023-08-20T02:25:04;19.39;83.06
78611;SHT30;67932;50.474;4.436;2023-08-20T02:27:31;19.41;83.09
78611;SHT30;67932;50.474;4.436;2023-08-20T02:29:57;19.34;82.82
78611;SHT30;67932;50.474;4.436;2023-08-20T02:32:23;19.38;82.78
78611;SHT30;67932;50.474;4.436;2023-08-20T02:34:51;19.32;82.99
78611;SHT30;67932;50.474;4.436;2023-08-20T02:37:17;19.28;82.87
78611;SHT30;67932;50.474;4.436;2023-08-20T02:39:44;19.28;83.00
78611;SHT30;67932;50.474;4.436;2023-08-20T02:42:10;19.25;84.72
78611;SHT30;67932;50.474;4.436;2023-08-20T02:44:36;19.19;85.01
78611;SHT30;67932;50.474;4.436;2023-08-20T02:47:03;19.17;85.12
78611;SHT30;67932;50.474;4.436;2023-08-20T02:49:29;19.14;85.52
78611;SHT30;67932;50.474;4.436;2023-08-20T02:51:55;19.22;83.93
78611;SHT30;67932;50.474;4.436;2023-08-20T02:54:21;19.12;85.08
78611;SHT30;67932;50.474;4.436;2023-08-20T02:56:48;19.05;85.00
78611;SHT30;67932;50.474;4.436;2023-08-20T02:59:15;18.94;85.23
78611;SHT30;67932;50.474;4.436;2023-08-20T03:01:41;18.81;85.96
78611;SHT30;67932;50.474;4.436;2023-08-20T03:04:08;18.67;86.05
78611;SHT30;67932;50.474;4.436;2023-08-20T03:06:34;18.59;86.13
78611;SHT30;67932;50.474;4.436;2023-08-20T03:09:01;18.59;85.87
78611;SHT30;67932;50.474;4.436;2023-08-20T03:11:27;18.56;86.05
78611;SHT30;67932;50.474;4.436;2023-08-20T03:13:53;18.54;86.30
78611;SHT30;67932;50.474;4.436;2023-08-20T03:16:19;18.47;86.22
78611;SHT30;67932;50.474;4.436;2023-08-20T03:18:45;18.42;86.34
78611;SHT30;67932;50.474;4.436;2023-08-20T03:21:12;18.37;86.57
78611;SHT30;67932;50.474;4.436;2023-08-20T03:23:39;18.34;87.14
78611;SHT30;67932;50.474;4.436;2023-08-20T03:26:05;18.29;87.16
78611;SHT30;67932;50.474;4.436;2023-08-20T03:28:31;18.23;87.12
78611;SHT30;67932;50.474;4.436;2023-08-20T03:31:01;18.17;87.26
78611;SHT30;67932;50.474;4.436;2023-08-20T03:33:28;18.19;87.40
78611;SHT30;67932;50.474;4.436;2023-08-20T03:35:54;18.10;87.71
78611;SHT30;67932;50.474;4.436;2023-08-20T03:38:20;18.09;87.72
78611;SHT30;67932;50.474;4.436;2023-08-20T03:40:48;18.03;87.82
78611;SHT30;67932;50.474;4.436;2023-08-20T03:43:14;17.95;88.14
78611;SHT30;67932;50.474;4.436;2023-08-20T03:45:42;17.93;88.32
78611;SHT30;67932;50.474;4.436;2023-08-20T03:48:08;17.90;88.26
78611;SHT30;67932;50.474;4.436;2023-08-20T03:50:34;17.92;88.30
78611;SHT30;67932;50.474;4.436;2023-08-20T03:53:00;17.96;88.22
78611;SHT30;67932;50.474;4.436;2023-08-20T03:55:27;17.99;88.10
78611;SHT30;67932;50.474;4.436;2023-08-20T03:57:53;18.02;88.30
78611;SHT30;67932;50.474;4.436;2023-08-20T04:00:19;18.06;87.87
78611;SHT30;67932;50.474;4.436;2023-08-20T04:02:46;17.95;88.13
78611;SHT30;67932;50.474;4.436;2023-08-20T04:05:12;17.99;88.16
78611;SHT30;67932;50.474;4.436;2023-08-20T04:07:39;17.96;88.08
78611;SHT30;67932;50.474;4.436;2023-08-20T04:10:07;18.05;87.99
78611;SHT30;67932;50.474;4.436;2023-08-20T04:12:33;18.06;87.66
78611;SHT30;67932;50.474;4.436;2023-08-20T04:14:59;18.13;87.26
78611;SHT30;67932;50.474;4.436;2023-08-20T04:17:26;18.09;87.26
78611;SHT30;67932;50.474;4.436;2023-08-20T04:19:52;17.93;87.85
78611;SHT30;67932;50.474;4.436;2023-08-20T04:22:18;17.88;88.23
78611;SHT30;67932;50.474;4.436;2023-08-20T04:24:44;17.88;88.30
78611;SHT30;67932;50.474;4.436;2023-08-20T04:27:11;17.90;88.05
78611;SHT30;67932;50.474;4.436;2023-08-20T04:29:37;17.98;87.79
78611;SHT30;67932;50.474;4.436;2023-08-20T04:32:03;18.00;87.68
78611;SHT30;67932;50.474;4.436;2023-08-20T04:34:29;17.95;87.74
78611;SHT30;67932;50.474;4.436;2023-08-20T04:36:56;17.89;87.87
78611;SHT30;67932;50.474;4.436;2023-08-20T04:39:22;17.76;88.31
78611;SHT30;67932;50.474;4.436;2023-08-20T04:41:48;17.68;88.49
78611;SHT30;67932;50.474;4.436;2023-08-20T04:44:15;17.64;88.76
78611;SHT30;67932;50.474;4.436;2023-08-20T04:46:41;17.61;88.87
78611;SHT30;67932;50.474;4.436;2023-08-20T04:49:08;17.64;88.84
78611;SHT30;67932;50.474;4.436;2023-08-20T04:51:34;17.59;88.87
78611;SHT30;67932;50.474;4.436;2023-08-20T04:54:00;17.58;88.95
78611;SHT30;67932;50.474;4.436;2023-08-20T04:56:26;17.56;89.30
78611;SHT30;67932;50.474;4.436;2023-08-20T04:58:53;17.58;89.29
78611;SHT30;67932;50.474;4.436;2023-08-20T05:01:19;17.59;89.19
78611;SHT30;67932;50.474;4.436;2023-08-20T05:03:45;17.68;88.88
78611;SHT30;67932;50.474;4.436;2023-08-20T05:06:11;17.75;88.78
78611;SHT30;67932;50.474;4.436;2023-08-20T05:08:37;17.68;88.53
78611;SHT30;67932;50.474;4.436;2023-08-20T05:11:04;17.68;88.62
78611;SHT30;67932;50.474;4.436;2023-08-20T05:13:30;17.66;88.73
78611;SHT30;67932;50.474;4.436;2023-08-20T05:15:56;17.65;88.43
78611;SHT30;67932;50.474;4.436;2023-08-20T05:18:22;17.62;88.42
78611;SHT30;67932;50.474;4.436;2023-08-20T05:20:49;17.59;88.58
78611;SHT30;67932;50.474;4.436;2023-08-20T05:23:15;17.59;88.43
78611;SHT30;67932;50.474;4.436;2023-08-20T05:25:41;17.56;88.36
78611;SHT30;67932;50.474;4.436;2023-08-20T05:28:07;17.58;88.32
78611;SHT30;67932;50.474;4.436;2023-08-20T05:30:34;17.59;88.21
78611;SHT30;67932;50.474;4.436;2023-08-20T05:33:00;17.62;88.31
78611;SHT30;67932;50.474;4.436;2023-08-20T05:35:27;17.66;87.81
78611;SHT30;67932;50.474;4.436;2023-08-20T05:37:54;17.74;87.50
78611;SHT30;67932;50.474;4.436;2023-08-20T05:40:20;17.76;87.26
78611;SHT30;67932;50.474;4.436;2023-08-20T05:42:47;17.79;87.03
78611;SHT30;67932;50.474;4.436;2023-08-20T05:45:13;17.79;87.05
78611;SHT30;67932;50.474;4.436;2023-08-20T05:47:39;17.81;87.35
78611;SHT30;67932;50.474;4.436;2023-08-20T05:50:06;17.86;87.16
78611;SHT30;67932;50.474;4.436;2023-08-20T05:52:32;17.89;87.33
78611;SHT30;67932;50.474;4.436;2023-08-20T05:54:58;17.93;86.98
78611;SHT30;67932;50.474;4.436;2023-08-20T05:57:24;18.00;87.09
78611;SHT30;67932;50.474;4.436;2023-08-20T05:59:51;18.12;87.61
78611;SHT30;67932;50.474;4.436;2023-08-20T06:02:18;18.19;86.50
78611;SHT30;67932;50.474;4.436;2023-08-20T06:04:44;18.23;86.63
78611;SHT30;67932;50.474;4.436;2023-08-20T06:07:11;18.29;86.70
78611;SHT30;67932;50.474;4.436;2023-08-20T06:09:37;18.34;86.62
78611;SHT30;67932;50.474;4.436;2023-08-20T06:12:03;18.34;86.21
78611;SHT30;67932;50.474;4.436;2023-08-20T06:14:29;18.43;85.78
78611;SHT30;67932;50.474;4.436;2023-08-20T06:16:56;18.42;85.96
78611;SHT30;67932;50.474;4.436;2023-08-20T06:19:23;18.43;86.13
78611;SHT30;67932;50.474;4.436;2023-08-20T06:21:49;18.52;85.70
78611;SHT30;67932;50.474;4.436;2023-08-20T06:24:15;18.61;85.63
78611;SHT30;67932;50.474;4.436;2023-08-20T06:26:41;18.70;84.64
78611;SHT30;67932;50.474;4.436;2023-08-20T06:29:10;18.81;84.31
78611;SHT30;67932;50.474;4.436;2023-08-20T06:31:36;18.97;82.36
78611;SHT30;67932;50.474;4.436;2023-08-20T06:34:02;19.07;82.67
78611;SHT30;67932;50.474;4.436;2023-08-20T06:36:29;19.17;81.12
78611;SHT30;67932;50.474;4.436;2023-08-20T06:38:55;19.24;81.34
78611;SHT30;67932;50.474;4.436;2023-08-20T06:41:22;19.27;80.14
78611;SHT30;67932;50.474;4.436;2023-08-20T06:43:48;19.34;80.39
78611;SHT30;67932;50.474;4.436;2023-08-20T06:46:15;19.38;78.91
78611;SHT30;67932;50.474;4.436;2023-08-20T06:48:41;19.41;78.75
78611;SHT30;67932;50.474;4.436;2023-08-20T06:51:15;19.42;80.23
78611;SHT30;67932;50.474;4.436;2023-08-20T06:53:42;19.48;79.44
78611;SHT30;67932;50.474;4.436;2023-08-20T06:56:09;19.57;77.11
78611;SHT30;67932;50.474;4.436;2023-08-20T06:58:36;19.59;79.12
78611;SHT30;67932;50.474;4.436;2023-08-20T07:01:02;19.61;78.68
78611;SHT30;67932;50.474;4.436;2023-08-20T07:03:41;19.63;77.80
78611;SHT30;67932;50.474;4.436;2023-08-20T07:06:08;19.62;78.42
78611;SHT30;67932;50.474;4.436;2023-08-20T07:08:36;19.75;76.53
78611;SHT30;67932;50.474;4.436;2023-08-20T07:11:02;19.89;74.17
78611;SHT30;67932;50.474;4.436;2023-08-20T07:13:29;20.05;73.22
78611;SHT30;67932;50.474;4.436;2023-08-20T07:15:55;20.12;74.52
78611;SHT30;67932;50.474;4.436;2023-08-20T07:18:21;20.16;74.40
78611;SHT30;67932;50.474;4.436;2023-08-20T07:20:49;20.13;75.09
78611;SHT30;67932;50.474;4.436;2023-08-20T07:23:15;20.14;75.21
78611;SHT30;67932;50.474;4.436;2023-08-20T07:25:42;20.22;73.58
78611;SHT30;67932;50.474;4.436;2023-08-20T07:28:09;20.34;72.83
78611;SHT30;67932;50.474;4.436;2023-08-20T07:30:35;20.40;73.13
78611;SHT30;67932;50.474;4.436;2023-08-20T07:33:02;20.48;73.84
78611;SHT30;67932;50.474;4.436;2023-08-20T07:35:29;20.61;72.38
78611;SHT30;67932;50.474;4.436;2023-08-20T07:37:55;20.71;72.12
78611;SHT30;67932;50.474;4.436;2023-08-20T07:40:21;20.74;72.54
78611;SHT30;67932;50.474;4.436;2023-08-20T07:42:48;20.85;72.14
78611;SHT30;67932;50.474;4.436;2023-08-20T07:45:16;20.88;72.18
78611;SHT30;67932;50.474;4.436;2023-08-20T07:47:42;21.02;72.83
78611;SHT30;67932;50.474;4.436;2023-08-20T07:50:08;21.08;72.32
78611;SHT30;67932;50.474;4.436;2023-08-20T07:52:35;21.12;72.59
78611;SHT30;67932;50.474;4.436;2023-08-20T07:55:01;21.17;73.19
78611;SHT30;67932;50.474;4.436;2023-08-20T07:57:27;21.19;73.06
78611;SHT30;67932;50.474;4.436;2023-08-20T07:59:54;21.27;73.01
78611;SHT30;67932;50.474;4.436;2023-08-20T08:02:20;21.37;72.88
78611;SHT30;67932;50.474;4.436;2023-08-20T08:04:46;21.39;72.88
78611;SHT30;67932;50.474;4.436;2023-08-20T08:07:12;21.41;72.92
78611;SHT30;67932;50.474;4.436;2023-08-20T08:09:39;21.43;72.24
78611;SHT30;67932;50.474;4.436;2023-08-20T08:12:05;21.43;72.20
78611;SHT30;67932;50.474;4.436;2023-08-20T08:14:31;21.48;72.16
78611;SHT30;67932;50.474;4.436;2023-08-20T08:16:59;21.52;71.98
78611;SHT30;67932;50.474;4.436;2023-08-20T08:19:25;21.53;71.88
78611;SHT30;67932;50.474;4.436;2023-08-20T08:21:51;21.56;71.88
78611;SHT30;67932;50.474;4.436;2023-08-20T08:24:18;21.59;71.57
78611;SHT30;67932;50.474;4.436;2023-08-20T08:26:44;21.63;72.03
78611;SHT30;67932;50.474;4.436;2023-08-20T08:29:10;21.71;72.33
78611;SHT30;67932;50.474;4.436;2023-08-20T08:31:37;21.79;72.47
78611;SHT30;67932;50.474;4.436;2023-08-20T08:34:03;21.88;73.23
78611;SHT30;67932;50.474;4.436;2023-08-20T08:36:30;21.95;72.74
78611;SHT30;67932;50.474;4.436;2023-08-20T08:38:56;21.96;71.71
78611;SHT30;67932;50.474;4.436;2023-08-20T08:41:23;21.99;72.25
78611;SHT30;67932;50.474;4.436;2023-08-20T08:43:51;22.07;72.10
78611;SHT30;67932;50.474;4.436;2023-08-20T08:46:17;22.10;71.32
78611;SHT30;67932;50.474;4.436;2023-08-20T08:48:45;22.14;71.64
78611;SHT30;67932;50.474;4.436;2023-08-20T08:51:15;22.16;71.34
78611;SHT30;67932;50.474;4.436;2023-08-20T08:53:43;22.17;70.86
78611;SHT30;67932;50.474;4.436;2023-08-20T08:56:12;22.24;71.15
78611;SHT30;67932;50.474;4.436;2023-08-20T08:58:38;22.30;70.79
78611;SHT30;67932;50.474;4.436;2023-08-20T09:01:04;22.39;71.05
78611;SHT30;67932;50.474;4.436;2023-08-20T09:03:31;22.43;70.85
78611;SHT30;67932;50.474;4.436;2023-08-20T09:05:59;22.51;70.87
78611;SHT30;67932;50.474;4.436;2023-08-20T09:08:32;22.53;70.43
78611;SHT30;67932;50.474;4.436;2023-08-20T09:11:00;22.54;70.86
78611;SHT30;67932;50.474;4.436;2023-08-20T09:13:34;22.68;70.03
78611;SHT30;67932;50.474;4.436;2023-08-20T09:16:03;22.72;68.85
78611;SHT30;67932;50.474;4.436;2023-08-20T09:18:30;22.78;69.09
78611;SHT30;67932;50.474;4.436;2023-08-20T09:20:57;22.77;69.40
78611;SHT30;67932;50.474;4.436;2023-08-20T09:23:28;22.83;68.69
78611;SHT30;67932;50.474;4.436;2023-08-20T09:25:55;22.90;68.18
78611;SHT30;67932;50.474;4.436;2023-08-20T09:28:22;22.94;68.38
78611;SHT30;67932;50.474;4.436;2023-08-20T09:30:58;22.97;68.10
78611;SHT30;67932;50.474;4.436;2023-08-20T09:33:27;23.05;67.69
78611;SHT30;67932;50.474;4.436;2023-08-20T09:35:54;23.10;68.13
78611;SHT30;67932;50.474;4.436;2023-08-20T09:38:22;23.04;68.40
78611;SHT30;67932;50.474;4.436;2023-08-20T09:40:52;23.04;68.13
78611;SHT30;67932;50.474;4.436;2023-08-20T09:43:19;23.01;68.41
78611;SHT30;67932;50.474;4.436;2023-08-20T09:45:47;23.10;68.31
78611;SHT30;67932;50.474;4.436;2023-08-20T09:48:18;23.16;67.00
78611;SHT30;67932;50.474;4.436;2023-08-20T09:50:49;23.31;66.84
78611;SHT30;67932;50.474;4.436;2023-08-20T09:53:22;23.42;67.45
78611;SHT30;67932;50.474;4.436;2023-08-20T09:55:52;23.51;66.92
78611;SHT30;67932;50.474;4.436;2023-08-20T09:58:21;23.42;66.81
78611;SHT30;67932;50.474;4.436;2023-08-20T10:00:52;23.38;67.25
78611;SHT30;67932;50.474;4.436;2023-08-20T10:03:20;23.49;67.27
78611;SHT30;67932;50.474;4.436;2023-08-20T10:05:49;23.59;66.35
78611;SHT30;67932;50.474;4.436;2023-08-20T10:08:16;23.63;66.56
78611;SHT30;67932;50.474;4.436;2023-08-20T10:10:42;23.62;66.95
78611;SHT30;67932;50.474;4.436;2023-08-20T10:13:09;23.59;66.64
78611;SHT30;67932;50.474;4.436;2023-08-20T10:15:37;23.62;66.52
78611;SHT30;67932;50.474;4.436;2023-08-20T10:18:04;23.66;66.19
78611;SHT30;67932;50.474;4.436;2023-08-20T10:20:31;23.70;66.34
78611;SHT30;67932;50.474;4.436;2023-08-20T10:23:02;23.77;66.31
78611;SHT30;67932;50.474;4.436;2023-08-20T10:25:30;23.92;65.82
78611;SHT30;67932;50.474;4.436;2023-08-20T10:28:27;24.14;65.34
78611;SHT30;67932;50.474;4.436;2023-08-20T10:31:04;24.13;65.09
78611;SHT30;67932;50.474;4.436;2023-08-20T10:33:35;24.10;65.83
78611;SHT30;67932;50.474;4.436;2023-08-20T10:36:28;24.16;65.78
78611;SHT30;67932;50.474;4.436;2023-08-20T10:38:55;24.24;65.77
78611;SHT30;67932;50.474;4.436;2023-08-20T10:41:26;24.26;65.71
78611;SHT30;67932;50.474;4.436;2023-08-20T10:43:54;24.33;65.62
78611;SHT30;67932;50.474;4.436;2023-08-20T10:46:24;24.61;65.27
78611;SHT30;67932;50.474;4.436;2023-08-20T10:48:53;24.70;65.03
78611;SHT30;67932;50.474;4.436;2023-08-20T10:51:37;24.64;65.76
78611;SHT30;67932;50.474;4.436;2023-08-20T10:54:08;24.67;65.88
78611;SHT30;67932;50.474;4.436;2023-08-20T10:59:15;24.82;64.76
78611;SHT30;67932;50.474;4.436;2023-08-20T11:01:46;24.88;63.13
78611;SHT30;67932;50.474;4.436;2023-08-20T11:04:14;24.81;63.24
78611;SHT30;67932;50.474;4.436;2023-08-20T11:06:41;24.80;63.22
78611;SHT30;67932;50.474;4.436;2023-08-20T11:09:08;24.88;63.52
78611;SHT30;67932;50.474;4.436;2023-08-20T11:11:34;24.94;63.85
78611;SHT30;67932;50.474;4.436;2023-08-20T11:14:06;24.95;64.01
78611;SHT30;67932;50.474;4.436;2023-08-20T11:16:36;25.25;63.69
78611;SHT30;67932;50.474;4.436;2023-08-20T11:19:03;25.55;63.33
78611;SHT30;67932;50.474;4.436;2023-08-20T11:21:37;25.58;63.78
78611;SHT30;67932;50.474;4.436;2023-08-20T11:24:05;25.58;62.31
78611;SHT30;67932;50.474;4.436;2023-08-20T11:26:32;25.46;61.23
78611;SHT30;67932;50.474;4.436;2023-08-20T11:28:58;25.41;61.26
78611;SHT30;67932;50.474;4.436;2023-08-20T11:31:26;25.42;61.66
78611;SHT30;67932;50.474;4.436;2023-08-20T11:33:52;25.83;59.99
78611;SHT30;67932;50.474;4.436;2023-08-20T11:36:20;26.24;59.57
78611;SHT30;67932;50.474;4.436;2023-08-20T11:38:53;26.34;59.88
78611;SHT30;67932;50.474;4.436;2023-08-20T11:41:24;26.54;58.05
78611;SHT30;67932;50.474;4.436;2023-08-20T11:43:51;26.95;57.48
78611;SHT30;67932;50.474;4.436;2023-08-20T11:46:22;26.54;59.72
78611;SHT30;67932;50.474;4.436;2023-08-20T11:49:05;25.85;58.59
78611;SHT30;67932;50.474;4.436;2023-08-20T11:51:42;26.06;59.08
78611;SHT30;67932;50.474;4.436;2023-08-20T11:54:14;26.29;58.33
78611;SHT30;67932;50.474;4.436;2023-08-20T11:59:11;26.27;59.08
78611;SHT30;67932;50.474;4.436;2023-08-20T12:01:38;26.20;59.07
78611;SHT30;67932;50.474;4.436;2023-08-20T12:04:06;26.07;59.60
78611;SHT30;67932;50.474;4.436;2023-08-20T12:06:34;26.29;61.21
78611;SHT30;67932;50.474;4.436;2023-08-20T12:09:01;26.03;58.61
78611;SHT30;67932;50.474;4.436;2023-08-20T12:11:31;25.99;59.75
78611;SHT30;67932;50.474;4.436;2023-08-20T12:13:58;26.30;59.85
78611;SHT30;67932;50.474;4.436;2023-08-20T12:16:24;26.23;61.33
78611;SHT30;67932;50.474;4.436;2023-08-20T12:18:52;26.37;59.86
78611;SHT30;67932;50.474;4.436;2023-08-20T12:21:21;26.63;57.76
78611;SHT30;67932;50.474;4.436;2023-08-20T12:23:48;26.54;57.45
78611;SHT30;67932;50.474;4.436;2023-08-20T12:26:14;26.68;57.12
78611;SHT30;67932;50.474;4.436;2023-08-20T12:28:40;26.63;57.53
78611;SHT30;67932;50.474;4.436;2023-08-20T12:31:07;26.73;57.95
78611;SHT30;67932;50.474;4.436;2023-08-20T12:33:33;26.88;56.58
78611;SHT30;67932;50.474;4.436;2023-08-20T12:36:00;26.88;56.08
78611;SHT30;67932;50.474;4.436;2023-08-20T12:38:26;26.65;55.40
78611;SHT30;67932;50.474;4.436;2023-08-20T12:40:53;26.33;56.02
78611;SHT30;67932;50.474;4.436;2023-08-20T12:43:19;26.73;56.75
78611;SHT30;67932;50.474;4.436;2023-08-20T12:45:45;27.01;55.17
78611;SHT30;67932;50.474;4.436;2023-08-20T12:48:11;27.29;55.35
78611;SHT30;67932;50.474;4.436;2023-08-20T12:50:38;27.04;54.28
78611;SHT30;67932;50.474;4.436;2023-08-20T12:53:04;26.81;54.87
78611;SHT30;67932;50.474;4.436;2023-08-20T12:55:30;26.67;55.53
78611;SHT30;67932;50.474;4.436;2023-08-20T12:57:59;26.81;56.08
78611;SHT30;67932;50.474;4.436;2023-08-20T13:00:26;26.83;55.64
78611;SHT30;67932;50.474;4.436;2023-08-20T13:02:53;26.95;56.71
78611;SHT30;67932;50.474;4.436;2023-08-20T13:05:21;27.35;55.56
78611;SHT30;67932;50.474;4.436;2023-08-20T13:07:48;27.56;54.89
78611;SHT30;67932;50.474;4.436;2023-08-20T13:10:15;27.52;56.03
78611;SHT30;67932;50.474;4.436;2023-08-20T13:12:43;27.50;54.76
78611;SHT30;67932;50.474;4.436;2023-08-20T13:15:16;27.50;57.76
78611;SHT30;67932;50.474;4.436;2023-08-20T13:17:43;27.35;54.68
78611;SHT30;67932;50.474;4.436;2023-08-20T13:20:09;28.06;53.73
78611;SHT30;67932;50.474;4.436;2023-08-20T13:22:37;28.97;51.76
78611;SHT30;67932;50.474;4.436;2023-08-20T13:25:03;30.61;47.22
78611;SHT30;67932;50.474;4.436;2023-08-20T13:27:30;29.22;50.83
78611;SHT30;67932;50.474;4.436;2023-08-20T13:29:57;30.13;47.33
78611;SHT30;67932;50.474;4.436;2023-08-20T13:32:24;30.17;47.72
78611;SHT30;67932;50.474;4.436;2023-08-20T13:34:51;29.51;48.68
78611;SHT30;67932;50.474;4.436;2023-08-20T13:37:18;30.94;46.14
78611;SHT30;67932;50.474;4.436;2023-08-20T13:39:44;30.43;46.36
78611;SHT30;67932;50.474;4.436;2023-08-20T13:42:10;29.70;47.70
78611;SHT30;67932;50.474;4.436;2023-08-20T13:44:36;29.51;48.91
78611;SHT30;67932;50.474;4.436;2023-08-20T13:47:03;28.60;50.99
78611;SHT30;67932;50.474;4.436;2023-08-20T13:49:29;28.24;51.59
78611;SHT30;67932;50.474;4.436;2023-08-20T13:51:55;27.74;51.88
78611;SHT30;67932;50.474;4.436;2023-08-20T13:54:21;27.59;55.92
78611;SHT30;67932;50.474;4.436;2023-08-20T13:56:48;27.50;53.63
78611;SHT30;67932;50.474;4.436;2023-08-20T13:59:14;27.34;54.04
78611;SHT30;67932;50.474;4.436;2023-08-20T14:01:40;27.29;53.87
78611;SHT30;67932;50.474;4.436;2023-08-20T14:04:06;27.18;54.35
78611;SHT30;67932;50.474;4.436;2023-08-20T14:06:33;27.22;54.74
78611;SHT30;67932;50.474;4.436;2023-08-20T14:08:59;27.19;54.86
78611;SHT30;67932;50.474;4.436;2023-08-20T14:11:25;27.21;54.82
78611;SHT30;67932;50.474;4.436;2023-08-20T14:13:52;27.60;54.11
78611;SHT30;67932;50.474;4.436;2023-08-20T14:16:18;28.98;50.54
78611;SHT30;67932;50.474;4.436;2023-08-20T14:18:44;29.19;49.99
78611;SHT30;67932;50.474;4.436;2023-08-20T14:21:10;30.96;46.44
78611;SHT30;67932;50.474;4.436;2023-08-20T14:23:36;32.37;42.79
78611;SHT30;67932;50.474;4.436;2023-08-20T14:26:06;32.17;44.33
78611;SHT30;67932;50.474;4.436;2023-08-20T14:28:32;32.48;45.09
78611;SHT30;67932;50.474;4.436;2023-08-20T14:31:02;31.98;45.21
78611;SHT30;67932;50.474;4.436;2023-08-20T14:33:30;32.57;43.53
78611;SHT30;67932;50.474;4.436;2023-08-20T14:35:57;33.29;41.21
78611;SHT30;67932;50.474;4.436;2023-08-20T14:38:23;33.12;41.88
78611;SHT30;67932;50.474;4.436;2023-08-20T14:40:49;33.49;41.76
78611;SHT30;67932;50.474;4.436;2023-08-20T14:43:15;31.82;43.42
78611;SHT30;67932;50.474;4.436;2023-08-20T14:45:42;30.47;46.04
78611;SHT30;67932;50.474;4.436;2023-08-20T14:48:08;29.99;47.60
78611;SHT30;67932;50.474;4.436;2023-08-20T14:50:34;29.43;48.78
78611;SHT30;67932;50.474;4.436;2023-08-20T14:53:01;29.83;48.01
78611;SHT30;67932;50.474;4.436;2023-08-20T14:55:27;29.52;48.80
78611;SHT30;67932;50.474;4.436;2023-08-20T14:57:54;31.52;46.52
78611;SHT30;67932;50.474;4.436;2023-08-20T15:00:20;31.87;44.31
78611;SHT30;67932;50.474;4.436;2023-08-20T15:02:48;30.99;46.43
78611;SHT30;67932;50.474;4.436;2023-08-20T15:05:16;30.17;47.40
78611;SHT30;67932;50.474;4.436;2023-08-20T15:07:42;29.79;48.33
78611;SHT30;67932;50.474;4.436;2023-08-20T15:10:10;29.72;49.43
78611;SHT30;67932;50.474;4.436;2023-08-20T15:12:37;30.06;49.60
78611;SHT30;67932;50.474;4.436;2023-08-20T15:15:06;31.96;45.55
78611;SHT30;67932;50.474;4.436;2023-08-20T15:17:35;33.11;43.66
78611;SHT30;67932;50.474;4.436;2023-08-20T15:20:02;33.52;42.77
78611;SHT30;67932;50.474;4.436;2023-08-20T15:22:34;34.10;41.24
78611;SHT30;67932;50.474;4.436;2023-08-20T15:25:00;35.00;38.71
78611;SHT30;67932;50.474;4.436;2023-08-20T15:27:26;35.39;37.84
78611;SHT30;67932;50.474;4.436;2023-08-20T15:29:53;34.20;39.69
78611;SHT30;67932;50.474;4.436;2023-08-20T15:32:19;33.44;41.04
78611;SHT30;67932;50.474;4.436;2023-08-20T15:34:47;32.57;41.19
78611;SHT30;67932;50.474;4.436;2023-08-20T15:37:13;33.17;40.19
78611;SHT30;67932;50.474;4.436;2023-08-20T15:39:39;33.41;39.84